sensor_id;sensor_type;location;lat;lon;timestamp;P1;durP1;ratioP1;P2;durP2;ratioP2
36441;SDS011;64346;50.820;16.274;2023-09-12T00:00:07;26.50;;;18.40;;
36441;SDS011;64346;50.820;16.274;2023-09-12T00:02:57;26.80;;;19.98;;
36441;SDS011;64346;50.820;16.274;2023-09-12T00:05:25;32.95;;;22.67;;
36441;SDS011;64346;50.820;16.274;2023-09-12T00:07:52;30.80;;;22.77;;
36441;SDS011;64346;50.820;16.274;2023-09-12T00:10:20;29.33;;;21.00;;
36441;SDS011;64346;50.820;16.274;2023-09-12T00:12:53;30.80;;;23.13;;
36441;SDS011;64346;50.820;16.274;2023-09-12T00:15:22;29.52;;;22.70;;
36441;SDS011;64346;50.820;16.274;2023-09-12T00:17:50;34.95;;;25.42;;
36441;SDS011;64346;50.820;16.274;2023-09-12T00:20:19;36.85;;;28.85;;
36441;SDS011;64346;50.820;16.274;2023-09-12T00:22:46;33.17;;;25.38;;
36441;SDS011;64346;50.820;16.274;2023-09-12T00:25:14;35.58;;;27.73;;
36441;SDS011;64346;50.820;16.274;2023-09-12T00:27:41;39.97;;;29.08;;
36441;SDS011;64346;50.820;16.274;2023-09-12T00:30:11;42.90;;;32.70;;
36441;SDS011;64346;50.820;16.274;2023-09-12T00:32:38;41.45;;;32.58;;
36441;SDS011;64346;50.820;16.274;2023-09-12T00:35:10;43.30;;;30.92;;
36441;SDS011;64346;50.820;16.274;2023-09-12T00:37:38;43.85;;;30.73;;
36441;SDS011;64346;50.820;16.274;2023-09-12T00:40:08;48.90;;;34.55;;
36441;SDS011;64346;50.820;16.274;2023-09-12T00:42:38;45.65;;;33.30;;
36441;SDS011;64346;50.820;16.274;2023-09-12T00:45:06;42.88;;;32.00;;
36441;SDS011;64346;50.820;16.274;2023-09-12T00:47:34;35.40;;;29.58;;
36441;SDS011;64346;50.820;16.274;2023-09-12T00:50:04;36.92;;;27.33;;
36441;SDS011;64346;50.820;16.274;2023-09-12T00:52:37;33.72;;;27.25;;
36441;SDS011;64346;50.820;16.274;2023-09-12T00:55:06;33.80;;;27.55;;
36441;SDS011;64346;50.820;16.274;2023-09-12T00:57:36;36.53;;;29.65;;
36441;SDS011;64346;50.820;16.274;2023-09-12T01:00:04;49.10;;;30.73;;
36441;SDS011;64346;50.820;16.274;2023-09-12T01:02:32;36.83;;;27.13;;
36441;SDS011;64346;50.820;16.274;2023-09-12T01:04:59;33.17;;;26.23;;
36441;SDS011;64346;50.820;16.274;2023-09-12T01:07:27;34.05;;;24.98;;
36441;SDS011;64346;50.820;16.274;2023-09-12T01:09:57;33.40;;;24.13;;
36441;SDS011;64346;50.820;16.274;2023-09-12T01:12:24;31.70;;;22.15;;
36441;SDS011;64346;50.820;16.274;2023-09-12T01:14:52;28.63;;;21.90;;
36441;SDS011;64346;50.820;16.274;2023-09-12T01:17:20;28.63;;;20.23;;
36441;SDS011;64346;50.820;16.274;2023-09-12T01:19:47;31.27;;;20.90;;
36441;SDS011;64346;50.820;16.274;2023-09-12T01:25:07;27.23;;;19.08;;
36441;SDS011;64346;50.820;16.274;2023-09-12T01:27:46;24.25;;;18.30;;
36441;SDS011;64346;50.820;16.274;2023-09-12T01:30:17;25.15;;;19.25;;
36441;SDS011;64346;50.820;16.274;2023-09-12T01:32:47;26.95;;;20.00;;
36441;SDS011;64346;50.820;16.274;2023-09-12T01:35:15;24.63;;;17.55;;
36441;SDS011;64346;50.820;16.274;2023-09-12T01:37:42;24.95;;;17.38;;
36441;SDS011;64346;50.820;16.274;2023-09-12T01:40:11;22.20;;;17.00;;
36441;SDS011;64346;50.820;16.274;2023-09-12T01:42:43;27.00;;;18.70;;
36441;SDS011;64346;50.820;16.274;2023-09-12T01:45:16;22.60;;;17.05;;
36441;SDS011;64346;50.820;16.274;2023-09-12T01:47:49;25.30;;;18.40;;
36441;SDS011;64346;50.820;16.274;2023-09-12T01:50:17;25.13;;;17.20;;
36441;SDS011;64346;50.820;16.274;2023-09-12T01:52:49;22.08;;;17.23;;
36441;SDS011;64346;50.820;16.274;2023-09-12T01:55:17;25.75;;;18.42;;
36441;SDS011;64346;50.820;16.274;2023-09-12T01:57:45;22.48;;;16.80;;
36441;SDS011;64346;50.820;16.274;2023-09-12T02:00:12;22.05;;;16.95;;
36441;SDS011;64346;50.820;16.274;2023-09-12T02:02:40;21.90;;;16.05;;
36441;SDS011;64346;50.820;16.274;2023-09-12T02:07:44;22.80;;;16.65;;
36441;SDS011;64346;50.820;16.274;2023-09-12T02:10:14;21.38;;;16.42;;
36441;SDS011;64346;50.820;16.274;2023-09-12T02:12:42;22.13;;;16.20;;
36441;SDS011;64346;50.820;16.274;2023-09-12T02:15:11;24.15;;;17.75;;
36441;SDS011;64346;50.820;16.274;2023-09-12T02:17:39;23.98;;;17.00;;
36441;SDS011;64346;50.820;16.274;2023-09-12T02:20:08;23.85;;;16.95;;
36441;SDS011;64346;50.820;16.274;2023-09-12T02:22:37;25.15;;;17.05;;
36441;SDS011;64346;50.820;16.274;2023-09-12T02:25:05;27.30;;;20.70;;
36441;SDS011;64346;50.820;16.274;2023-09-12T02:27:34;28.55;;;20.30;;
36441;SDS011;64346;50.820;16.274;2023-09-12T02:30:02;26.65;;;19.55;;
36441;SDS011;64346;50.820;16.274;2023-09-12T02:32:32;22.65;;;17.13;;
36441;SDS011;64346;50.820;16.274;2023-09-12T02:35:00;24.52;;;17.63;;
36441;SDS011;64346;50.820;16.274;2023-09-12T02:37:27;24.67;;;18.02;;
36441;SDS011;64346;50.820;16.274;2023-09-12T02:39:57;25.30;;;18.08;;
36441;SDS011;64346;50.820;16.274;2023-09-12T02:42:24;24.67;;;18.80;;
36441;SDS011;64346;50.820;16.274;2023-09-12T02:44:52;26.40;;;19.08;;
36441;SDS011;64346;50.820;16.274;2023-09-12T02:47:19;24.52;;;18.10;;
36441;SDS011;64346;50.820;16.274;2023-09-12T02:49:49;28.70;;;20.15;;
36441;SDS011;64346;50.820;16.274;2023-09-12T02:52:19;26.70;;;20.17;;
36441;SDS011;64346;50.820;16.274;2023-09-12T02:54:46;26.55;;;19.45;;
36441;SDS011;64346;50.820;16.274;2023-09-12T02:57:13;32.47;;;22.08;;
36441;SDS011;64346;50.820;16.274;2023-09-12T02:59:43;26.15;;;19.88;;
36441;SDS011;64346;50.820;16.274;2023-09-12T03:02:11;29.58;;;20.38;;
36441;SDS011;64346;50.820;16.274;2023-09-12T03:04:38;26.20;;;19.60;;
36441;SDS011;64346;50.820;16.274;2023-09-12T03:07:08;27.88;;;20.05;;
36441;SDS011;64346;50.820;16.274;2023-09-12T03:09:35;27.75;;;20.27;;
36441;SDS011;64346;50.820;16.274;2023-09-12T03:12:03;33.22;;;21.75;;
36441;SDS011;64346;50.820;16.274;2023-09-12T03:14:33;27.65;;;20.70;;
36441;SDS011;64346;50.820;16.274;2023-09-12T03:17:01;26.65;;;19.38;;
36441;SDS011;64346;50.820;16.274;2023-09-12T03:19:29;27.48;;;20.60;;
36441;SDS011;64346;50.820;16.274;2023-09-12T03:21:59;26.88;;;19.92;;
36441;SDS011;64346;50.820;16.274;2023-09-12T03:24:28;29.30;;;20.50;;
36441;SDS011;64346;50.820;16.274;2023-09-12T03:26:56;30.80;;;22.50;;
36441;SDS011;64346;50.820;16.274;2023-09-12T03:29:23;28.67;;;20.63;;
36441;SDS011;64346;50.820;16.274;2023-09-12T03:31:53;26.15;;;19.40;;
36441;SDS011;64346;50.820;16.274;2023-09-12T03:34:22;28.65;;;20.42;;
36441;SDS011;64346;50.820;16.274;2023-09-12T03:36:50;29.17;;;20.52;;
36441;SDS011;64346;50.820;16.274;2023-09-12T03:39:17;28.08;;;19.63;;
36441;SDS011;64346;50.820;16.274;2023-09-12T03:41:44;26.05;;;19.90;;
36441;SDS011;64346;50.820;16.274;2023-09-12T03:44:11;30.08;;;19.77;;
36441;SDS011;64346;50.820;16.274;2023-09-12T03:46:39;28.75;;;20.17;;
36441;SDS011;64346;50.820;16.274;2023-09-12T03:49:06;27.27;;;19.05;;
36441;SDS011;64346;50.820;16.274;2023-09-12T03:51:33;23.38;;;17.42;;
36441;SDS011;64346;50.820;16.274;2023-09-12T03:54:00;24.95;;;17.48;;
36441;SDS011;64346;50.820;16.274;2023-09-12T03:56:28;26.73;;;21.13;;
36441;SDS011;64346;50.820;16.274;2023-09-12T03:58:55;25.30;;;17.65;;
36441;SDS011;64346;50.820;16.274;2023-09-12T04:01:25;26.08;;;19.42;;
36441;SDS011;64346;50.820;16.274;2023-09-12T04:03:55;30.27;;;20.52;;
36441;SDS011;64346;50.820;16.274;2023-09-12T04:06:25;29.02;;;20.60;;
36441;SDS011;64346;50.820;16.274;2023-09-12T04:08:52;28.08;;;20.13;;
36441;SDS011;64346;50.820;16.274;2023-09-12T04:11:19;26.75;;;18.73;;
36441;SDS011;64346;50.820;16.274;2023-09-12T04:14:05;25.73;;;17.88;;
36441;SDS011;64346;50.820;16.274;2023-09-12T04:16:35;26.35;;;18.02;;
36441;SDS011;64346;50.820;16.274;2023-09-12T04:19:02;27.65;;;18.92;;
36441;SDS011;64346;50.820;16.274;2023-09-12T04:21:30;27.77;;;19.25;;
36441;SDS011;64346;50.820;16.274;2023-09-12T04:23:57;29.20;;;20.42;;
36441;SDS011;64346;50.820;16.274;2023-09-12T04:26:27;27.92;;;19.90;;
36441;SDS011;64346;50.820;16.274;2023-09-12T04:28:54;29.85;;;20.17;;
36441;SDS011;64346;50.820;16.274;2023-09-12T04:31:24;29.55;;;19.33;;
36441;SDS011;64346;50.820;16.274;2023-09-12T04:33:52;30.73;;;21.67;;
36441;SDS011;64346;50.820;16.274;2023-09-12T04:36:20;30.60;;;19.95;;
36441;SDS011;64346;50.820;16.274;2023-09-12T04:38:47;26.95;;;18.65;;
36441;SDS011;64346;50.820;16.274;2023-09-12T04:41:17;29.88;;;19.30;;
36441;SDS011;64346;50.820;16.274;2023-09-12T04:43:44;30.58;;;21.95;;
36441;SDS011;64346;50.820;16.274;2023-09-12T04:46:12;27.38;;;18.98;;
36441;SDS011;64346;50.820;16.274;2023-09-12T04:48:39;31.23;;;19.08;;
36441;SDS011;64346;50.820;16.274;2023-09-12T04:51:08;24.35;;;17.25;;
36441;SDS011;64346;50.820;16.274;2023-09-12T04:53:38;23.35;;;16.30;;
36441;SDS011;64346;50.820;16.274;2023-09-12T04:56:05;25.85;;;18.40;;
36441;SDS011;64346;50.820;16.274;2023-09-12T04:58:32;26.13;;;17.98;;
36441;SDS011;64346;50.820;16.274;2023-09-12T05:01:00;24.17;;;17.52;;
36441;SDS011;64346;50.820;16.274;2023-09-12T05:03:27;22.88;;;15.77;;
36441;SDS011;64346;50.820;16.274;2023-09-12T05:05:57;25.35;;;15.55;;
36441;SDS011;64346;50.820;16.274;2023-09-12T05:08:24;27.73;;;16.42;;
36441;SDS011;64346;50.820;16.274;2023-09-12T05:10:51;25.15;;;15.30;;
36441;SDS011;64346;50.820;16.274;2023-09-12T05:13:20;23.38;;;16.45;;
36441;SDS011;64346;50.820;16.274;2023-09-12T05:15:50;25.42;;;17.40;;
36441;SDS011;64346;50.820;16.274;2023-09-12T05:18:17;22.25;;;14.48;;
36441;SDS011;64346;50.820;16.274;2023-09-12T05:20:45;22.15;;;15.77;;
36441;SDS011;64346;50.820;16.274;2023-09-12T05:23:12;22.35;;;16.02;;
36441;SDS011;64346;50.820;16.274;2023-09-12T05:25:39;25.35;;;19.17;;
36441;SDS011;64346;50.820;16.274;2023-09-12T05:28:06;28.30;;;20.02;;
36441;SDS011;64346;50.820;16.274;2023-09-12T05:30:36;36.30;;;22.35;;
36441;SDS011;64346;50.820;16.274;2023-09-12T05:33:03;24.73;;;19.08;;
36441;SDS011;64346;50.820;16.274;2023-09-12T05:35:31;28.27;;;18.30;;
36441;SDS011;64346;50.820;16.274;2023-09-12T05:37:58;26.77;;;18.10;;
36441;SDS011;64346;50.820;16.274;2023-09-12T05:40:26;29.80;;;22.67;;
36441;SDS011;64346;50.820;16.274;2023-09-12T05:42:53;30.75;;;20.83;;
36441;SDS011;64346;50.820;16.274;2023-09-12T05:45:21;26.25;;;17.58;;
36441;SDS011;64346;50.820;16.274;2023-09-12T05:47:48;28.38;;;17.63;;
36441;SDS011;64346;50.820;16.274;2023-09-12T05:50:16;31.55;;;20.15;;
36441;SDS011;64346;50.820;16.274;2023-09-12T05:52:43;30.95;;;18.55;;
36441;SDS011;64346;50.820;16.274;2023-09-12T05:55:10;39.88;;;24.10;;
36441;SDS011;64346;50.820;16.274;2023-09-12T05:57:37;41.05;;;27.27;;
36441;SDS011;64346;50.820;16.274;2023-09-12T06:00:05;38.13;;;28.05;;
36441;SDS011;64346;50.820;16.274;2023-09-12T06:02:33;36.35;;;24.83;;
36441;SDS011;64346;50.820;16.274;2023-09-12T06:05:00;38.80;;;27.27;;
36441;SDS011;64346;50.820;16.274;2023-09-12T06:07:27;38.92;;;25.58;;
36441;SDS011;64346;50.820;16.274;2023-09-12T06:09:55;42.45;;;25.70;;
36441;SDS011;64346;50.820;16.274;2023-09-12T06:12:22;41.75;;;26.60;;
36441;SDS011;64346;50.820;16.274;2023-09-12T06:14:50;38.35;;;24.23;;
36441;SDS011;64346;50.820;16.274;2023-09-12T06:17:20;37.58;;;24.73;;
36441;SDS011;64346;50.820;16.274;2023-09-12T06:19:48;33.75;;;22.70;;
36441;SDS011;64346;50.820;16.274;2023-09-12T06:22:15;31.25;;;20.80;;
36441;SDS011;64346;50.820;16.274;2023-09-12T06:24:43;31.75;;;20.60;;
36441;SDS011;64346;50.820;16.274;2023-09-12T06:27:10;29.73;;;18.92;;
36441;SDS011;64346;50.820;16.274;2023-09-12T06:29:38;28.52;;;17.83;;
36441;SDS011;64346;50.820;16.274;2023-09-12T06:32:07;24.80;;;17.25;;
36441;SDS011;64346;50.820;16.274;2023-09-12T06:34:35;27.27;;;15.70;;
36441;SDS011;64346;50.820;16.274;2023-09-12T06:37:04;24.88;;;16.23;;
36441;SDS011;64346;50.820;16.274;2023-09-12T06:39:32;26.77;;;16.13;;
36441;SDS011;64346;50.820;16.274;2023-09-12T06:41:59;23.17;;;15.13;;
36441;SDS011;64346;50.820;16.274;2023-09-12T06:44:26;22.67;;;15.43;;
36441;SDS011;64346;50.820;16.274;2023-09-12T06:46:56;20.15;;;12.90;;
36441;SDS011;64346;50.820;16.274;2023-09-12T06:49:25;23.13;;;15.40;;
36441;SDS011;64346;50.820;16.274;2023-09-12T06:51:52;28.88;;;22.63;;
36441;SDS011;64346;50.820;16.274;2023-09-12T06:54:20;22.50;;;15.93;;
36441;SDS011;64346;50.820;16.274;2023-09-12T06:56:50;20.90;;;11.95;;
36441;SDS011;64346;50.820;16.274;2023-09-12T06:59:17;16.83;;;11.55;;
36441;SDS011;64346;50.820;16.274;2023-09-12T07:01:47;22.98;;;11.82;;
36441;SDS011;64346;50.820;16.274;2023-09-12T07:04:15;20.58;;;11.75;;
36441;SDS011;64346;50.820;16.274;2023-09-12T07:06:45;16.65;;;10.85;;
36441;SDS011;64346;50.820;16.274;2023-09-12T07:09:13;18.27;;;11.00;;
36441;SDS011;64346;50.820;16.274;2023-09-12T07:11:43;18.23;;;11.13;;
36441;SDS011;64346;50.820;16.274;2023-09-12T07:14:10;15.48;;;11.02;;
36441;SDS011;64346;50.820;16.274;2023-09-12T07:16:37;14.43;;;9.52;;
36441;SDS011;64346;50.820;16.274;2023-09-12T07:19:05;16.05;;;10.23;;
36441;SDS011;64346;50.820;16.274;2023-09-12T07:21:35;17.20;;;10.37;;
36441;SDS011;64346;50.820;16.274;2023-09-12T07:24:07;17.73;;;11.60;;
36441;SDS011;64346;50.820;16.274;2023-09-12T07:26:35;16.77;;;10.27;;
36441;SDS011;64346;50.820;16.274;2023-09-12T07:29:02;15.68;;;11.00;;
36441;SDS011;64346;50.820;16.274;2023-09-12T07:31:30;16.63;;;10.02;;
36441;SDS011;64346;50.820;16.274;2023-09-12T07:33:57;18.25;;;10.95;;
36441;SDS011;64346;50.820;16.274;2023-09-12T07:36:24;15.77;;;9.68;;
36441;SDS011;64346;50.820;16.274;2023-09-12T07:38:52;16.58;;;10.27;;
36441;SDS011;64346;50.820;16.274;2023-09-12T07:41:21;17.07;;;9.43;;
36441;SDS011;64346;50.820;16.274;2023-09-12T07:43:49;15.55;;;9.18;;
36441;SDS011;64346;50.820;16.274;2023-09-12T07:46:16;13.05;;;7.95;;
36441;SDS011;64346;50.820;16.274;2023-09-12T07:48:44;13.45;;;7.43;;
36441;SDS011;64346;50.820;16.274;2023-09-12T07:51:14;10.70;;;7.03;;
36441;SDS011;64346;50.820;16.274;2023-09-12T07:53:43;8.93;;;7.07;;
36441;SDS011;64346;50.820;16.274;2023-09-12T07:56:10;9.45;;;6.38;;
36441;SDS011;64346;50.820;16.274;2023-09-12T07:58:38;11.73;;;6.82;;
36441;SDS011;64346;50.820;16.274;2023-09-12T08:01:08;11.02;;;6.40;;
36441;SDS011;64346;50.820;16.274;2023-09-12T08:03:39;9.32;;;6.28;;
36441;SDS011;64346;50.820;16.274;2023-09-12T08:06:07;9.13;;;5.97;;
36441;SDS011;64346;50.820;16.274;2023-09-12T08:08:35;10.95;;;5.82;;
36441;SDS011;64346;50.820;16.274;2023-09-12T08:11:02;11.25;;;6.57;;
36441;SDS011;64346;50.820;16.274;2023-09-12T08:13:30;9.68;;;6.30;;
36441;SDS011;64346;50.820;16.274;2023-09-12T08:15:57;9.30;;;6.82;;
36441;SDS011;64346;50.820;16.274;2023-09-12T08:18:28;10.73;;;7.28;;
36441;SDS011;64346;50.820;16.274;2023-09-12T08:20:56;11.00;;;6.25;;
36441;SDS011;64346;50.820;16.274;2023-09-12T08:23:29;10.75;;;6.28;;
36441;SDS011;64346;50.820;16.274;2023-09-12T08:25:59;10.15;;;5.57;;
36441;SDS011;64346;50.820;16.274;2023-09-12T08:30:54;9.85;;;5.78;;
36441;SDS011;64346;50.820;16.274;2023-09-12T08:33:21;9.57;;;6.47;;
36441;SDS011;64346;50.820;16.274;2023-09-12T08:38:19;9.68;;;5.40;;
36441;SDS011;64346;50.820;16.274;2023-09-12T08:40:50;9.27;;;5.90;;
36441;SDS011;64346;50.820;16.274;2023-09-12T08:43:18;9.15;;;5.80;;
36441;SDS011;64346;50.820;16.274;2023-09-12T08:45:49;13.05;;;8.45;;
36441;SDS011;64346;50.820;16.274;2023-09-12T08:48:20;9.63;;;6.28;;
36441;SDS011;64346;50.820;16.274;2023-09-12T08:50:50;9.80;;;6.35;;
36441;SDS011;64346;50.820;16.274;2023-09-12T08:53:19;8.70;;;6.00;;
36441;SDS011;64346;50.820;16.274;2023-09-12T08:55:47;8.70;;;5.80;;
36441;SDS011;64346;50.820;16.274;2023-09-12T08:58:14;10.25;;;6.85;;
36441;SDS011;64346;50.820;16.274;2023-09-12T09:00:42;9.38;;;6.22;;
36441;SDS011;64346;50.820;16.274;2023-09-12T09:03:10;9.95;;;6.30;;
36441;SDS011;64346;50.820;16.274;2023-09-12T09:05:39;9.43;;;6.18;;
36441;SDS011;64346;50.820;16.274;2023-09-12T09:08:09;8.52;;;5.97;;
36441;SDS011;64346;50.820;16.274;2023-09-12T09:10:36;9.75;;;6.32;;
36441;SDS011;64346;50.820;16.274;2023-09-12T09:13:17;14.40;;;7.45;;
36441;SDS011;64346;50.820;16.274;2023-09-12T09:15:44;10.60;;;6.57;;
36441;SDS011;64346;50.820;16.274;2023-09-12T09:18:12;9.50;;;6.40;;
36441;SDS011;64346;50.820;16.274;2023-09-12T09:20:40;10.60;;;7.38;;
36441;SDS011;64346;50.820;16.274;2023-09-12T09:23:09;8.77;;;5.80;;
36441;SDS011;64346;50.820;16.274;2023-09-12T09:25:40;10.57;;;6.60;;
36441;SDS011;64346;50.820;16.274;2023-09-12T09:28:19;10.00;;;6.65;;
36441;SDS011;64346;50.820;16.274;2023-09-12T09:30:50;9.88;;;6.60;;
36441;SDS011;64346;50.820;16.274;2023-09-12T09:33:19;11.57;;;7.22;;
36441;SDS011;64346;50.820;16.274;2023-09-12T09:35:47;10.90;;;6.45;;
36441;SDS011;64346;50.820;16.274;2023-09-12T09:38:15;9.45;;;6.63;;
36441;SDS011;64346;50.820;16.274;2023-09-12T09:40:46;11.05;;;7.72;;
36441;SDS011;64346;50.820;16.274;2023-09-12T09:43:19;10.00;;;7.18;;
36441;SDS011;64346;50.820;16.274;2023-09-12T09:45:48;11.63;;;6.68;;
36441;SDS011;64346;50.820;16.274;2023-09-12T09:48:21;9.88;;;7.00;;
36441;SDS011;64346;50.820;16.274;2023-09-12T09:50:50;13.20;;;7.45;;
36441;SDS011;64346;50.820;16.274;2023-09-12T09:53:21;11.02;;;7.72;;
36441;SDS011;64346;50.820;16.274;2023-09-12T09:56:06;15.45;;;8.65;;
36441;SDS011;64346;50.820;16.274;2023-09-12T09:58:42;13.63;;;8.65;;
36441;SDS011;64346;50.820;16.274;2023-09-12T10:01:19;15.50;;;9.07;;
36441;SDS011;64346;50.820;16.274;2023-09-12T10:03:48;19.10;;;10.68;;
36441;SDS011;64346;50.820;16.274;2023-09-12T10:06:17;15.60;;;8.20;;
36441;SDS011;64346;50.820;16.274;2023-09-12T10:08:49;12.52;;;7.65;;
36441;SDS011;64346;50.820;16.274;2023-09-12T10:11:20;11.20;;;8.23;;
36441;SDS011;64346;50.820;16.274;2023-09-12T10:13:54;11.00;;;7.05;;
36441;SDS011;64346;50.820;16.274;2023-09-12T10:16:23;9.25;;;7.13;;
36441;SDS011;64346;50.820;16.274;2023-09-12T10:18:58;10.98;;;6.45;;
36441;SDS011;64346;50.820;16.274;2023-09-12T10:21:33;11.30;;;7.20;;
36441;SDS011;64346;50.820;16.274;2023-09-12T10:24:02;11.60;;;7.32;;
36441;SDS011;64346;50.820;16.274;2023-09-12T10:26:31;11.77;;;7.20;;
36441;SDS011;64346;50.820;16.274;2023-09-12T10:29:01;9.93;;;6.53;;
36441;SDS011;64346;50.820;16.274;2023-09-12T10:31:31;11.10;;;7.00;;
36441;SDS011;64346;50.820;16.274;2023-09-12T10:34:00;9.38;;;7.18;;
36441;SDS011;64346;50.820;16.274;2023-09-12T10:36:30;9.75;;;7.35;;
36441;SDS011;64346;50.820;16.274;2023-09-12T10:38:58;10.00;;;7.15;;
36441;SDS011;64346;50.820;16.274;2023-09-12T10:41:26;10.85;;;7.40;;
36441;SDS011;64346;50.820;16.274;2023-09-12T10:43:54;12.88;;;6.53;;
36441;SDS011;64346;50.820;16.274;2023-09-12T10:46:24;9.82;;;6.57;;
36441;SDS011;64346;50.820;16.274;2023-09-12T10:48:52;9.63;;;6.90;;
36441;SDS011;64346;50.820;16.274;2023-09-12T10:51:20;10.27;;;6.97;;
36441;SDS011;64346;50.820;16.274;2023-09-12T10:53:52;10.77;;;6.85;;
36441;SDS011;64346;50.820;16.274;2023-09-12T10:56:20;10.13;;;6.80;;
36441;SDS011;64346;50.820;16.274;2023-09-12T11:01:30;11.13;;;7.53;;
36441;SDS011;64346;50.820;16.274;2023-09-12T11:04:04;11.68;;;7.72;;
36441;SDS011;64346;50.820;16.274;2023-09-12T11:06:46;14.52;;;8.43;;
36441;SDS011;64346;50.820;16.274;2023-09-12T11:09:18;13.77;;;7.25;;
36441;SDS011;64346;50.820;16.274;2023-09-12T11:11:48;12.57;;;7.90;;
36441;SDS011;64346;50.820;16.274;2023-09-12T11:14:22;11.15;;;7.55;;
36441;SDS011;64346;50.820;16.274;2023-09-12T11:19:45;11.02;;;6.95;;
36441;SDS011;64346;50.820;16.274;2023-09-12T11:22:26;11.98;;;7.38;;
36441;SDS011;64346;50.820;16.274;2023-09-12T11:25:01;10.85;;;7.80;;
36441;SDS011;64346;50.820;16.274;2023-09-12T11:27:33;15.65;;;7.80;;
36441;SDS011;64346;50.820;16.274;2023-09-12T11:30:32;10.52;;;7.55;;
36441;SDS011;64346;50.820;16.274;2023-09-12T11:32:59;8.88;;;6.82;;
36441;SDS011;64346;50.820;16.274;2023-09-12T11:35:30;10.80;;;8.15;;
36441;SDS011;64346;50.820;16.274;2023-09-12T11:38:03;10.30;;;7.68;;
36441;SDS011;64346;50.820;16.274;2023-09-12T11:43:01;14.43;;;8.23;;
36441;SDS011;64346;50.820;16.274;2023-09-12T11:45:30;10.70;;;7.53;;
36441;SDS011;64346;50.820;16.274;2023-09-12T11:48:02;12.80;;;7.07;;
36441;SDS011;64346;50.820;16.274;2023-09-12T11:50:31;12.35;;;8.50;;
36441;SDS011;64346;50.820;16.274;2023-09-12T11:55:27;11.32;;;8.40;;
36441;SDS011;64346;50.820;16.274;2023-09-12T11:57:58;13.00;;;9.05;;
36441;SDS011;64346;50.820;16.274;2023-09-12T12:00:26;12.63;;;8.23;;
36441;SDS011;64346;50.820;16.274;2023-09-12T12:02:54;11.85;;;8.90;;
36441;SDS011;64346;50.820;16.274;2023-09-12T12:05:24;11.95;;;8.07;;
36441;SDS011;64346;50.820;16.274;2023-09-12T12:07:52;12.20;;;8.82;;
36441;SDS011;64346;50.820;16.274;2023-09-12T12:10:42;12.52;;;8.50;;
36441;SDS011;64346;50.820;16.274;2023-09-12T12:13:16;14.57;;;7.95;;
36441;SDS011;64346;50.820;16.274;2023-09-12T12:15:44;11.27;;;7.70;;
36441;SDS011;64346;50.820;16.274;2023-09-12T12:18:12;12.88;;;8.07;;
36441;SDS011;64346;50.820;16.274;2023-09-12T12:20:42;13.20;;;8.48;;
36441;SDS011;64346;50.820;16.274;2023-09-12T12:23:12;12.45;;;8.95;;
36441;SDS011;64346;50.820;16.274;2023-09-12T12:25:43;17.85;;;9.80;;
36441;SDS011;64346;50.820;16.274;2023-09-12T12:28:10;12.15;;;8.57;;
36441;SDS011;64346;50.820;16.274;2023-09-12T12:30:38;12.55;;;8.38;;
36441;SDS011;64346;50.820;16.274;2023-09-12T12:33:07;13.90;;;8.27;;
36441;SDS011;64346;50.820;16.274;2023-09-12T12:36:02;17.70;;;9.30;;
36441;SDS011;64346;50.820;16.274;2023-09-12T12:38:35;12.75;;;8.60;;
36441;SDS011;64346;50.820;16.274;2023-09-12T12:41:17;14.77;;;8.80;;
36441;SDS011;64346;50.820;16.274;2023-09-12T12:44:11;11.35;;;8.68;;
36441;SDS011;64346;50.820;16.274;2023-09-12T12:46:50;13.40;;;9.48;;
36441;SDS011;64346;50.820;16.274;2023-09-12T12:49:19;14.90;;;9.20;;
36441;SDS011;64346;50.820;16.274;2023-09-12T12:51:47;11.73;;;8.20;;
36441;SDS011;64346;50.820;16.274;2023-09-12T12:54:21;13.32;;;9.07;;
36441;SDS011;64346;50.820;16.274;2023-09-12T12:56:49;11.05;;;8.45;;
36441;SDS011;64346;50.820;16.274;2023-09-12T12:59:16;12.73;;;8.52;;
36441;SDS011;64346;50.820;16.274;2023-09-12T13:01:46;12.95;;;9.20;;
36441;SDS011;64346;50.820;16.274;2023-09-12T13:04:16;14.43;;;10.52;;
36441;SDS011;64346;50.820;16.274;2023-09-12T13:06:44;15.98;;;11.00;;
36441;SDS011;64346;50.820;16.274;2023-09-12T13:09:13;13.32;;;10.05;;
36441;SDS011;64346;50.820;16.274;2023-09-12T13:11:43;14.32;;;8.27;;
36441;SDS011;64346;50.820;16.274;2023-09-12T13:14:12;12.55;;;9.23;;
36441;SDS011;64346;50.820;16.274;2023-09-12T13:16:40;12.90;;;9.88;;
36441;SDS011;64346;50.820;16.274;2023-09-12T13:19:09;15.20;;;10.43;;
36441;SDS011;64346;50.820;16.274;2023-09-12T13:21:37;13.60;;;10.35;;
36441;SDS011;64346;50.820;16.274;2023-09-12T13:24:04;11.45;;;8.95;;
36441;SDS011;64346;50.820;16.274;2023-09-12T13:26:32;13.90;;;9.63;;
36441;SDS011;64346;50.820;16.274;2023-09-12T13:28:59;13.20;;;9.40;;
36441;SDS011;64346;50.820;16.274;2023-09-12T13:31:32;15.52;;;9.57;;
36441;SDS011;64346;50.820;16.274;2023-09-12T13:34:01;11.60;;;9.10;;
36441;SDS011;64346;50.820;16.274;2023-09-12T13:36:29;12.55;;;9.50;;
36441;SDS011;64346;50.820;16.274;2023-09-12T13:39:32;12.38;;;9.07;;
36441;SDS011;64346;50.820;16.274;2023-09-12T13:42:00;13.40;;;9.80;;
36441;SDS011;64346;50.820;16.274;2023-09-12T13:44:30;13.57;;;8.93;;
36441;SDS011;64346;50.820;16.274;2023-09-12T13:46:57;14.40;;;9.30;;
36441;SDS011;64346;50.820;16.274;2023-09-12T13:49:24;17.35;;;10.75;;
36441;SDS011;64346;50.820;16.274;2023-09-12T13:51:54;12.80;;;9.57;;
36441;SDS011;64346;50.820;16.274;2023-09-12T13:54:24;13.68;;;9.77;;
36441;SDS011;64346;50.820;16.274;2023-09-12T13:56:51;13.82;;;10.38;;
36441;SDS011;64346;50.820;16.274;2023-09-12T13:59:19;17.50;;;11.45;;
36441;SDS011;64346;50.820;16.274;2023-09-12T14:02:01;13.52;;;9.05;;
36441;SDS011;64346;50.820;16.274;2023-09-12T14:04:28;13.35;;;9.63;;
36441;SDS011;64346;50.820;16.274;2023-09-12T14:06:56;13.35;;;10.02;;
36441;SDS011;64346;50.820;16.274;2023-09-12T14:09:26;13.00;;;9.88;;
36441;SDS011;64346;50.820;16.274;2023-09-12T14:11:55;12.85;;;9.55;;
36441;SDS011;64346;50.820;16.274;2023-09-12T14:14:23;15.05;;;10.25;;
36441;SDS011;64346;50.820;16.274;2023-09-12T14:16:50;14.82;;;9.65;;
36441;SDS011;64346;50.820;16.274;2023-09-12T14:19:19;14.02;;;9.13;;
36441;SDS011;64346;50.820;16.274;2023-09-12T14:21:49;13.65;;;9.52;;
36441;SDS011;64346;50.820;16.274;2023-09-12T14:24:20;16.10;;;10.60;;
36441;SDS011;64346;50.820;16.274;2023-09-12T14:26:49;20.42;;;13.88;;
36441;SDS011;64346;50.820;16.274;2023-09-12T14:29:20;14.30;;;11.50;;
36441;SDS011;64346;50.820;16.274;2023-09-12T14:31:49;14.20;;;10.88;;
36441;SDS011;64346;50.820;16.274;2023-09-12T14:34:18;17.25;;;12.45;;
36441;SDS011;64346;50.820;16.274;2023-09-12T14:36:48;15.00;;;10.60;;
36441;SDS011;64346;50.820;16.274;2023-09-12T14:39:18;12.90;;;10.45;;
36441;SDS011;64346;50.820;16.274;2023-09-12T14:41:45;15.18;;;9.45;;
36441;SDS011;64346;50.820;16.274;2023-09-12T14:44:12;14.10;;;9.85;;
36441;SDS011;64346;50.820;16.274;2023-09-12T14:46:40;13.90;;;9.52;;
36441;SDS011;64346;50.820;16.274;2023-09-12T14:49:07;15.98;;;10.35;;